sensor_id;sensor_type;location;lat;lon;timestamp;P1;durP1;ratioP1;P2;durP2;ratioP2
48522;SDS011;34315;50.150;11.070;2022-12-07T00:00:13;6.30;;;3.53;;
48522;SDS011;34315;50.150;11.070;2022-12-07T00:05:14;7.03;;;4.03;;
48522;SDS011;34315;50.150;11.070;2022-12-07T00:10:14;6.65;;;3.63;;
48522;SDS011;34315;50.150;11.070;2022-12-07T00:15:14;8.25;;;4.03;;
48522;SDS011;34315;50.150;11.070;2022-12-07T00:20:15;6.90;;;3.95;;
48522;SDS011;34315;50.150;11.070;2022-12-07T00:25:15;52.88;;;15.98;;
48522;SDS011;34315;50.150;11.070;2022-12-07T00:30:16;26.48;;;12.43;;
48522;SDS011;34315;50.150;11.070;2022-12-07T00:35:16;13.35;;;6.50;;
48522;SDS011;34315;50.150;11.070;2022-12-07T00:40:17;18.67;;;7.47;;
48522;SDS011;34315;50.150;11.070;2022-12-07T00:45:17;8.48;;;4.78;;
48522;SDS011;34315;50.150;11.070;2022-12-07T00:50:17;20.67;;;9.13;;
48522;SDS011;34315;50.150;11.070;2022-12-07T00:55:19;8.60;;;4.07;;
48522;SDS011;34315;50.150;11.070;2022-12-07T01:00:20;6.15;;;3.55;;
48522;SDS011;34315;50.150;11.070;2022-12-07T01:05:20;7.88;;;4.50;;
48522;SDS011;34315;50.150;11.070;2022-12-07T01:10:20;7.35;;;4.10;;
48522;SDS011;34315;50.150;11.070;2022-12-07T01:15:21;7.25;;;4.22;;
48522;SDS011;34315;50.150;11.070;2022-12-07T01:20:22;9.88;;;4.85;;
48522;SDS011;34315;50.150;11.070;2022-12-07T01:25:22;8.18;;;4.60;;
48522;SDS011;34315;50.150;11.070;2022-12-07T01:30:23;6.82;;;3.92;;
48522;SDS011;34315;50.150;11.070;2022-12-07T01:35:23;7.95;;;4.43;;
48522;SDS011;34315;50.150;11.070;2022-12-07T01:40:24;7.55;;;4.80;;
48522;SDS011;34315;50.150;11.070;2022-12-07T01:50:30;8.52;;;4.60;;
48522;SDS011;34315;50.150;11.070;2022-12-07T01:55:32;8.50;;;5.30;;
48522;SDS011;34315;50.150;11.070;2022-12-07T02:00:32;8.82;;;5.22;;
48522;SDS011;34315;50.150;11.070;2022-12-07T02:05:33;7.95;;;4.60;;
48522;SDS011;34315;50.150;11.070;2022-12-07T02:10:35;10.05;;;4.75;;
48522;SDS011;34315;50.150;11.070;2022-12-07T02:16:21;8.07;;;5.40;;
48522;SDS011;34315;50.150;11.070;2022-12-07T02:21:02;8.32;;;5.00;;
48522;SDS011;34315;50.150;11.070;2022-12-07T02:26:24;9.25;;;5.68;;
48522;SDS011;34315;50.150;11.070;2022-12-07T02:31:33;11.05;;;6.38;;
48522;SDS011;34315;50.150;11.070;2022-12-07T02:36:36;10.57;;;6.70;;
48522;SDS011;34315;50.150;11.070;2022-12-07T02:41:47;11.32;;;6.57;;
48522;SDS011;34315;50.150;11.070;2022-12-07T02:47:05;9.40;;;6.40;;
48522;SDS011;34315;50.150;11.070;2022-12-07T02:57:17;11.02;;;6.70;;
48522;SDS011;34315;50.150;11.070;2022-12-07T03:02:53;11.35;;;6.28;;
48522;SDS011;34315;50.150;11.070;2022-12-07T03:13:20;11.50;;;7.15;;
48522;SDS011;34315;50.150;11.070;2022-12-07T03:18:24;15.18;;;7.65;;
48522;SDS011;34315;50.150;11.070;2022-12-07T03:23:26;11.90;;;6.60;;
48522;SDS011;34315;50.150;11.070;2022-12-07T03:28:29;13.02;;;7.03;;
48522;SDS011;34315;50.150;11.070;2022-12-07T03:33:36;13.25;;;8.25;;
48522;SDS011;34315;50.150;11.070;2022-12-07T03:38:49;13.13;;;7.40;;
48522;SDS011;34315;50.150;11.070;2022-12-07T03:43:54;13.40;;;7.78;;
48522;SDS011;34315;50.150;11.070;2022-12-07T03:48:57;16.58;;;8.02;;
48522;SDS011;34315;50.150;11.070;2022-12-07T03:54:02;12.80;;;7.13;;
48522;SDS011;34315;50.150;11.070;2022-12-07T03:59:14;14.07;;;7.15;;
48522;SDS011;34315;50.150;11.070;2022-12-07T04:04:15;13.75;;;7.25;;
48522;SDS011;34315;50.150;11.070;2022-12-07T04:09:16;15.95;;;8.40;;
48522;SDS011;34315;50.150;11.070;2022-12-07T04:14:17;13.85;;;8.30;;
48522;SDS011;34315;50.150;11.070;2022-12-07T04:19:20;15.00;;;8.73;;
48522;SDS011;34315;50.150;11.070;2022-12-07T04:24:23;16.65;;;8.50;;
48522;SDS011;34315;50.150;11.070;2022-12-07T04:29:24;17.60;;;8.80;;
48522;SDS011;34315;50.150;11.070;2022-12-07T04:34:25;17.50;;;8.90;;
48522;SDS011;34315;50.150;11.070;2022-12-07T04:39:27;15.45;;;8.75;;
48522;SDS011;34315;50.150;11.070;2022-12-07T04:44:29;15.68;;;8.27;;
48522;SDS011;34315;50.150;11.070;2022-12-07T04:49:30;16.13;;;8.73;;
48522;SDS011;34315;50.150;11.070;2022-12-07T04:54:30;15.77;;;7.57;;
48522;SDS011;34315;50.150;11.070;2022-12-07T04:59:31;16.73;;;8.50;;
48522;SDS011;34315;50.150;11.070;2022-12-07T05:04:31;14.40;;;7.38;;
48522;SDS011;34315;50.150;11.070;2022-12-07T05:09:31;14.70;;;7.63;;
48522;SDS011;34315;50.150;11.070;2022-12-07T05:14:32;15.02;;;7.22;;
48522;SDS011;34315;50.150;11.070;2022-12-07T05:19:33;12.52;;;7.30;;
48522;SDS011;34315;50.150;11.070;2022-12-07T05:24:33;14.20;;;7.30;;
48522;SDS011;34315;50.150;11.070;2022-12-07T05:29:33;14.35;;;7.40;;
48522;SDS011;34315;50.150;11.070;2022-12-07T05:34:34;13.88;;;7.35;;
48522;SDS011;34315;50.150;11.070;2022-12-07T05:39:34;15.57;;;7.13;;
48522;SDS011;34315;50.150;11.070;2022-12-07T05:44:34;13.25;;;7.35;;
48522;SDS011;34315;50.150;11.070;2022-12-07T05:49:35;15.10;;;8.82;;
48522;SDS011;34315;50.150;11.070;2022-12-07T05:54:35;15.57;;;7.47;;
48522;SDS011;34315;50.150;11.070;2022-12-07T05:59:36;15.38;;;7.97;;
48522;SDS011;34315;50.150;11.070;2022-12-07T06:04:37;13.68;;;7.53;;
48522;SDS011;34315;50.150;11.070;2022-12-07T06:09:39;16.33;;;8.55;;
48522;SDS011;34315;50.150;11.070;2022-12-07T06:14:39;13.88;;;7.63;;
48522;SDS011;34315;50.150;11.070;2022-12-07T06:19:40;15.38;;;7.70;;
48522;SDS011;34315;50.150;11.070;2022-12-07T06:24:40;18.38;;;9.45;;
48522;SDS011;34315;50.150;11.070;2022-12-07T06:29:41;15.55;;;8.48;;
48522;SDS011;34315;50.150;11.070;2022-12-07T06:34:41;13.35;;;7.45;;
48522;SDS011;34315;50.150;11.070;2022-12-07T06:39:42;20.15;;;8.65;;
48522;SDS011;34315;50.150;11.070;2022-12-07T06:44:43;14.98;;;7.88;;
48522;SDS011;34315;50.150;11.070;2022-12-07T06:49:43;16.30;;;9.05;;
48522;SDS011;34315;50.150;11.070;2022-12-07T06:54:43;17.08;;;8.52;;
48522;SDS011;34315;50.150;11.070;2022-12-07T06:59:45;19.33;;;9.77;;
48522;SDS011;34315;50.150;11.070;2022-12-07T07:04:45;17.20;;;9.25;;
48522;SDS011;34315;50.150;11.070;2022-12-07T07:09:45;17.48;;;9.50;;
48522;SDS011;34315;50.150;11.070;2022-12-07T07:14:46;16.80;;;8.85;;
48522;SDS011;34315;50.150;11.070;2022-12-07T07:19:47;16.58;;;8.95;;
48522;SDS011;34315;50.150;11.070;2022-12-07T07:24:47;17.17;;;8.50;;
48522;SDS011;34315;50.150;11.070;2022-12-07T07:29:47;18.85;;;9.95;;
48522;SDS011;34315;50.150;11.070;2022-12-07T07:34:48;18.25;;;9.27;;
48522;SDS011;34315;50.150;11.070;2022-12-07T07:39:48;16.00;;;8.93;;
48522;SDS011;34315;50.150;11.070;2022-12-07T07:44:49;19.08;;;9.73;;
48522;SDS011;34315;50.150;11.070;2022-12-07T07:49:49;18.42;;;9.40;;
48522;SDS011;34315;50.150;11.070;2022-12-07T07:54:49;17.48;;;9.18;;
48522;SDS011;34315;50.150;11.070;2022-12-07T07:59:50;13.73;;;7.75;;
48522;SDS011;34315;50.150;11.070;2022-12-07T08:04:50;14.93;;;8.27;;
48522;SDS011;34315;50.150;11.070;2022-12-07T08:09:51;17.25;;;8.73;;
48522;SDS011;34315;50.150;11.070;2022-12-07T08:14:52;15.85;;;7.68;;
48522;SDS011;34315;50.150;11.070;2022-12-07T08:19:52;14.90;;;7.63;;
48522;SDS011;34315;50.150;11.070;2022-12-07T08:24:53;18.63;;;8.95;;
48522;SDS011;34315;50.150;11.070;2022-12-07T08:29:53;14.45;;;7.65;;
48522;SDS011;34315;50.150;11.070;2022-12-07T08:34:54;18.35;;;8.85;;
48522;SDS011;34315;50.150;11.070;2022-12-07T08:39:54;16.23;;;9.18;;
48522;SDS011;34315;50.150;11.070;2022-12-07T08:44:55;15.73;;;8.55;;
48522;SDS011;34315;50.150;11.070;2022-12-07T08:49:58;15.60;;;8.20;;
48522;SDS011;34315;50.150;11.070;2022-12-07T08:55:03;15.25;;;9.13;;
48522;SDS011;34315;50.150;11.070;2022-12-07T09:00:05;16.52;;;8.35;;
48522;SDS011;34315;50.150;11.070;2022-12-07T09:05:06;15.50;;;8.00;;
48522;SDS011;34315;50.150;11.070;2022-12-07T09:10:06;17.70;;;8.27;;
48522;SDS011;34315;50.150;11.070;2022-12-07T09:15:07;14.68;;;8.30;;
48522;SDS011;34315;50.150;11.070;2022-12-07T09:20:08;15.63;;;8.70;;
48522;SDS011;34315;50.150;11.070;2022-12-07T09:25:09;16.70;;;8.27;;
48522;SDS011;34315;50.150;11.070;2022-12-07T09:30:09;14.00;;;7.40;;
48522;SDS011;34315;50.150;11.070;2022-12-07T09:35:09;14.68;;;7.28;;
48522;SDS011;34315;50.150;11.070;2022-12-07T09:40:10;17.25;;;7.97;;
48522;SDS011;34315;50.150;11.070;2022-12-07T09:45:12;15.23;;;8.82;;
48522;SDS011;34315;50.150;11.070;2022-12-07T09:50:16;14.27;;;7.97;;
48522;SDS011;34315;50.150;11.070;2022-12-07T09:55:28;15.98;;;8.90;;
48522;SDS011;34315;50.150;11.070;2022-12-07T10:00:29;18.40;;;8.73;;
48522;SDS011;34315;50.150;11.070;2022-12-07T10:05:30;11.75;;;6.82;;
48522;SDS011;34315;50.150;11.070;2022-12-07T10:10:35;14.30;;;8.55;;
48522;SDS011;34315;50.150;11.070;2022-12-07T10:15:59;16.00;;;7.68;;
48522;SDS011;34315;50.150;11.070;2022-12-07T10:21:03;12.57;;;7.30;;
48522;SDS011;34315;50.150;11.070;2022-12-07T10:31:48;11.57;;;6.60;;
48522;SDS011;34315;50.150;11.070;2022-12-07T10:53:13;16.80;;;6.72;;
48522;SDS011;34315;50.150;11.070;2022-12-07T10:58:29;14.25;;;7.80;;
48522;SDS011;34315;50.150;11.070;2022-12-07T11:08:57;12.55;;;6.20;;
48522;SDS011;34315;50.150;11.070;2022-12-07T11:25:02;10.35;;;5.78;;
48522;SDS011;34315;50.150;11.070;2022-12-07T11:30:34;10.13;;;5.75;;
48522;SDS011;34315;50.150;11.070;2022-12-07T11:36:24;8.88;;;4.95;;
48522;SDS011;34315;50.150;11.070;2022-12-07T11:41:11;9.95;;;5.57;;
48522;SDS011;34315;50.150;11.070;2022-12-07T11:46:13;9.95;;;4.97;;
48522;SDS011;34315;50.150;11.070;2022-12-07T11:51:15;8.02;;;4.82;;
48522;SDS011;34315;50.150;11.070;2022-12-07T11:56:22;7.55;;;4.30;;
48522;SDS011;34315;50.150;11.070;2022-12-07T12:06:27;8.02;;;4.20;;
48522;SDS011;34315;50.150;11.070;2022-12-07T12:22:41;7.93;;;5.07;;
48522;SDS011;34315;50.150;11.070;2022-12-07T12:27:44;10.07;;;5.18;;
48522;SDS011;34315;50.150;11.070;2022-12-07T12:32:46;10.38;;;4.40;;
48522;SDS011;34315;50.150;11.070;2022-12-07T12:37:47;10.43;;;4.82;;
48522;SDS011;34315;50.150;11.070;2022-12-07T12:42:48;8.45;;;5.00;;
48522;SDS011;34315;50.150;11.070;2022-12-07T12:47:53;11.68;;;6.10;;
48522;SDS011;34315;50.150;11.070;2022-12-07T13:03:27;9.88;;;5.35;;
48522;SDS011;34315;50.150;11.070;2022-12-07T13:08:29;9.50;;;5.32;;
48522;SDS011;34315;50.150;11.070;2022-12-07T13:13:31;11.18;;;5.50;;
48522;SDS011;34315;50.150;11.070;2022-12-07T13:28:35;8.45;;;4.90;;
48522;SDS011;34315;50.150;11.070;2022-12-07T13:33:36;8.13;;;4.63;;
48522;SDS011;34315;50.150;11.070;2022-12-07T13:38:37;8.45;;;4.32;;
48522;SDS011;34315;50.150;11.070;2022-12-07T13:43:49;8.43;;;4.40;;
48522;SDS011;34315;50.150;11.070;2022-12-07T13:48:50;12.55;;;5.60;;
48522;SDS011;34315;50.150;11.070;2022-12-07T13:53:55;7.55;;;4.38;;
48522;SDS011;34315;50.150;11.070;2022-12-07T13:59:00;7.65;;;4.20;;
48522;SDS011;34315;50.150;11.070;2022-12-07T14:04:17;7.68;;;4.10;;
48522;SDS011;34315;50.150;11.070;2022-12-07T14:09:21;10.63;;;4.82;;
48522;SDS011;34315;50.150;11.070;2022-12-07T14:14:24;8.18;;;4.53;;
48522;SDS011;34315;50.150;11.070;2022-12-07T14:19:46;10.17;;;5.77;;
48522;SDS011;34315;50.150;11.070;2022-12-07T14:24:48;9.65;;;5.55;;
48522;SDS011;34315;50.150;11.070;2022-12-07T14:29:49;12.00;;;6.60;;
48522;SDS011;34315;50.150;11.070;2022-12-07T14:34:53;10.50;;;5.85;;
48522;SDS011;34315;50.150;11.070;2022-12-07T14:39:56;11.68;;;5.07;;
48522;SDS011;34315;50.150;11.070;2022-12-07T14:44:57;7.38;;;4.28;;
48522;SDS011;34315;50.150;11.070;2022-12-07T14:49:58;7.75;;;3.80;;
48522;SDS011;34315;50.150;11.070;2022-12-07T14:54:58;7.75;;;4.07;;
48522;SDS011;34315;50.150;11.070;2022-12-07T14:59:58;6.35;;;3.63;;
48522;SDS011;34315;50.150;11.070;2022-12-07T15:04:59;7.68;;;3.30;;
48522;SDS011;34315;50.150;11.070;2022-12-07T15:09:59;7.40;;;3.10;;
48522;SDS011;34315;50.150;11.070;2022-12-07T15:15:00;11.25;;;3.75;;
48522;SDS011;34315;50.150;11.070;2022-12-07T15:20:01;7.78;;;3.50;;
48522;SDS011;34315;50.150;11.070;2022-12-07T15:25:03;11.70;;;5.78;;
48522;SDS011;34315;50.150;11.070;2022-12-07T15:30:06;9.25;;;4.95;;
48522;SDS011;34315;50.150;11.070;2022-12-07T15:35:07;10.55;;;5.05;;
48522;SDS011;34315;50.150;11.070;2022-12-07T15:40:07;11.95;;;6.07;;
48522;SDS011;34315;50.150;11.070;2022-12-07T15:45:08;9.55;;;4.88;;
48522;SDS011;34315;50.150;11.070;2022-12-07T15:50:10;9.07;;;4.47;;
48522;SDS011;34315;50.150;11.070;2022-12-07T15:55:12;7.35;;;4.43;;
48522;SDS011;34315;50.150;11.070;2022-12-07T16:00:13;10.00;;;4.43;;
48522;SDS011;34315;50.150;11.070;2022-12-07T16:05:13;8.75;;;4.78;;
48522;SDS011;34315;50.150;11.070;2022-12-07T16:10:14;9.50;;;5.10;;
48522;SDS011;34315;50.150;11.070;2022-12-07T16:15:15;8.35;;;4.43;;
48522;SDS011;34315;50.150;11.070;2022-12-07T16:20:15;9.32;;;4.97;;
48522;SDS011;34315;50.150;11.070;2022-12-07T16:25:16;10.85;;;5.07;;
48522;SDS011;34315;50.150;11.070;2022-12-07T16:30:16;8.43;;;4.40;;
48522;SDS011;34315;50.150;11.070;2022-12-07T16:35:17;9.70;;;5.47;;
48522;SDS011;34315;50.150;11.070;2022-12-07T16:40:17;10.20;;;5.15;;
48522;SDS011;34315;50.150;11.070;2022-12-07T16:45:18;7.32;;;4.40;;
48522;SDS011;34315;50.150;11.070;2022-12-07T16:50:18;10.07;;;4.43;;
48522;SDS011;34315;50.150;11.070;2022-12-07T16:55:18;10.48;;;4.97;;
48522;SDS011;34315;50.150;11.070;2022-12-07T17:00:19;11.05;;;5.03;;
48522;SDS011;34315;50.150;11.070;2022-12-07T17:05:20;11.18;;;5.05;;
48522;SDS011;34315;50.150;11.070;2022-12-07T17:10:20;11.93;;;5.63;;
48522;SDS011;34315;50.150;11.070;2022-12-07T17:15:21;12.73;;;6.00;;
48522;SDS011;34315;50.150;11.070;2022-12-07T17:20:22;8.98;;;5.72;;
48522;SDS011;34315;50.150;11.070;2022-12-07T17:25:23;9.65;;;5.93;;
48522;SDS011;34315;50.150;11.070;2022-12-07T17:30:24;11.13;;;6.43;;
48522;SDS011;34315;50.150;11.070;2022-12-07T17:35:27;12.82;;;6.78;;
48522;SDS011;34315;50.150;11.070;2022-12-07T17:40:27;9.73;;;6.07;;
48522;SDS011;34315;50.150;11.070;2022-12-07T17:45:28;12.18;;;6.47;;
48522;SDS011;34315;50.150;11.070;2022-12-07T17:50:28;11.25;;;5.93;;
48522;SDS011;34315;50.150;11.070;2022-12-07T17:55:47;9.38;;;5.85;;
48522;SDS011;34315;50.150;11.070;2022-12-07T18:00:47;9.45;;;5.53;;
48522;SDS011;34315;50.150;11.070;2022-12-07T18:05:48;9.65;;;5.57;;
48522;SDS011;34315;50.150;11.070;2022-12-07T18:10:48;10.43;;;5.97;;
48522;SDS011;34315;50.150;11.070;2022-12-07T18:15:54;9.85;;;5.68;;
48522;SDS011;34315;50.150;11.070;2022-12-07T18:20:56;11.82;;;5.50;;
48522;SDS011;34315;50.150;11.070;2022-12-07T18:25:56;11.80;;;6.15;;
48522;SDS011;34315;50.150;11.070;2022-12-07T18:30:57;9.38;;;5.60;;
48522;SDS011;34315;50.150;11.070;2022-12-07T18:35:58;9.82;;;5.32;;
48522;SDS011;34315;50.150;11.070;2022-12-07T18:40:59;11.63;;;5.70;;
48522;SDS011;34315;50.150;11.070;2022-12-07T18:46:00;11.60;;;5.10;;
48522;SDS011;34315;50.150;11.070;2022-12-07T18:51:02;7.68;;;4.57;;
48522;SDS011;34315;50.150;11.070;2022-12-07T18:56:04;9.88;;;5.20;;
48522;SDS011;34315;50.150;11.070;2022-12-07T19:01:06;8.68;;;4.57;;
48522;SDS011;34315;50.150;11.070;2022-12-07T19:06:07;7.80;;;4.07;;
48522;SDS011;34315;50.150;11.070;2022-12-07T19:11:12;8.57;;;4.25;;
48522;SDS011;34315;50.150;11.070;2022-12-07T19:16:34;7.28;;;4.90;;
48522;SDS011;34315;50.150;11.070;2022-12-07T19:21:35;8.32;;;4.55;;
48522;SDS011;34315;50.150;11.070;2022-12-07T19:26:36;10.38;;;4.72;;
48522;SDS011;34315;50.150;11.070;2022-12-07T19:31:36;9.00;;;4.60;;
48522;SDS011;34315;50.150;11.070;2022-12-07T19:36:37;7.57;;;4.43;;
48522;SDS011;34315;50.150;11.070;2022-12-07T19:41:37;9.27;;;5.00;;
48522;SDS011;34315;50.150;11.070;2022-12-07T19:46:38;9.68;;;5.50;;
48522;SDS011;34315;50.150;11.070;2022-12-07T19:51:39;10.65;;;5.57;;
48522;SDS011;34315;50.150;11.070;2022-12-07T19:56:40;9.88;;;5.60;;
48522;SDS011;34315;50.150;11.070;2022-12-07T20:01:41;12.85;;;5.82;;
48522;SDS011;34315;50.150;11.070;2022-12-07T20:06:42;11.85;;;6.28;;
48522;SDS011;34315;50.150;11.070;2022-12-07T20:11:43;10.27;;;6.20;;
48522;SDS011;34315;50.150;11.070;2022-12-07T20:17:02;12.48;;;6.63;;
48522;SDS011;34315;50.150;11.070;2022-12-07T20:22:03;11.20;;;5.82;;
48522;SDS011;34315;50.150;11.070;2022-12-07T20:27:04;12.18;;;6.28;;
48522;SDS011;34315;50.150;11.070;2022-12-07T20:32:04;12.35;;;6.35;;
48522;SDS011;34315;50.150;11.070;2022-12-07T20:37:05;9.85;;;6.38;;
48522;SDS011;34315;50.150;11.070;2022-12-07T20:42:05;10.73;;;6.00;;
48522;SDS011;34315;50.150;11.070;2022-12-07T20:47:24;13.30;;;7.38;;
48522;SDS011;34315;50.150;11.070;2022-12-07T20:52:25;13.10;;;6.85;;
48522;SDS011;34315;50.150;11.070;2022-12-07T20:57:25;10.68;;;6.40;;
48522;SDS011;34315;50.150;11.070;2022-12-07T21:02:26;11.32;;;6.22;;
48522;SDS011;34315;50.150;11.070;2022-12-07T21:07:26;15.88;;;6.95;;
48522;SDS011;34315;50.150;11.070;2022-12-07T21:12:27;11.13;;;5.68;;
48522;SDS011;34315;50.150;11.070;2022-12-07T21:17:28;9.82;;;5.53;;
48522;SDS011;34315;50.150;11.070;2022-12-07T21:22:28;9.52;;;5.63;;
48522;SDS011;34315;50.150;11.070;2022-12-07T21:27:28;10.00;;;5.63;;
48522;SDS011;34315;50.150;11.070;2022-12-07T21:32:29;9.80;;;5.28;;
48522;SDS011;34315;50.150;11.070;2022-12-07T21:37:29;10.48;;;5.88;;
48522;SDS011;34315;50.150;11.070;2022-12-07T21:42:30;9.80;;;5.20;;
48522;SDS011;34315;50.150;11.070;2022-12-07T21:47:31;9.65;;;5.03;;
48522;SDS011;34315;50.150;11.070;2022-12-07T21:52:31;10.30;;;5.63;;
48522;SDS011;34315;50.150;11.070;2022-12-07T21:57:32;15.65;;;6.80;;
48522;SDS011;34315;50.150;11.070;2022-12-07T22:02:32;12.52;;;6.93;;
48522;SDS011;34315;50.150;11.070;2022-12-07T22:07:33;12.35;;;6.90;;
48522;SDS011;34315;50.150;11.070;2022-12-07T22:12:33;16.63;;;7.07;;
48522;SDS011;34315;50.150;11.070;2022-12-07T22:17:33;11.63;;;6.47;;
48522;SDS011;34315;50.150;11.070;2022-12-07T22:22:34;14.73;;;7.28;;
48522;SDS011;34315;50.150;11.070;2022-12-07T22:27:34;15.27;;;8.15;;
48522;SDS011;34315;50.150;11.070;2022-12-07T22:32:35;11.35;;;6.10;;
48522;SDS011;34315;50.150;11.070;2022-12-07T22:37:36;13.38;;;6.55;;
48522;SDS011;34315;50.150;11.070;2022-12-07T22:42:36;11.00;;;6.38;;
48522;SDS011;34315;50.150;11.070;2022-12-07T22:47:38;13.30;;;6.28;;
48522;SDS011;34315;50.150;11.070;2022-12-07T22:52:38;11.80;;;6.32;;
48522;SDS011;34315;50.150;11.070;2022-12-07T22:57:39;9.02;;;6.20;;
48522;SDS011;34315;50.150;11.070;2022-12-07T23:02:40;10.57;;;6.05;;
48522;SDS011;34315;50.150;11.070;2022-12-07T23:07:40;11.40;;;6.47;;
48522;SDS011;34315;50.150;11.070;2022-12-07T23:12:41;11.82;;;7.38;;
48522;SDS011;34315;50.150;11.070;2022-12-07T23:18:00;11.02;;;6.32;;
48522;SDS011;34315;50.150;11.070;2022-12-07T23:23:00;11.23;;;6.22;;
48522;SDS011;34315;50.150;11.070;2022-12-07T23:28:00;11.80;;;6.97;;
48522;SDS011;34315;50.150;11.070;2022-12-07T23:33:01;15.27;;;6.75;;
48522;SDS011;34315;50.150;11.070;2022-12-07T23:38:01;10.90;;;6.55;;
48522;SDS011;34315;50.150;11.070;2022-12-07T23:43:02;9.60;;;6.20;;
48522;SDS011;34315;50.150;11.070;2022-12-07T23:48:02;9.52;;;5.82;;
48522;SDS011;34315;50.150;11.070;2022-12-07T23:53:03;10.65;;;5.90;;
48522;SDS011;34315;50.150;11.070;2022-12-07T23:58:03;10.52;;;6.38;;
